Bei Facebook empfehlenBei Twitter postenGoogle plusPinterest

Das Wetter im Erzgebirge am 03.03.2017

Wetter und Klima am 03.03.2017 Holzhau im Erzgebirge (630m ü.NN)
Letzte gemessene Temperatur und Uhrzeit der Messung23:45:00 Uhr3.60 °C
Temperatur (Maximum / Höchstwert) und Uhrzeit der Messung14:15:00 Uhr7.70 °C
Temperatur (Minimum / Tiefstwert) und Uhrzeit der Messung07:15:00-2.20 °C
Errechneter Absolutwert der Temperaturschwankungen zwischen Tmin und Tmax des Tages9.90 K
Errechnete Tagesmitteltemperatur3.60729 °C
Gesamt - Niederschlag des Tages (in flüssiger Form)0.00 Liter / m²
Luftdruck (Maximum / Höchstwert) und Zeitpunkt der Messung03:45:00 Uhr1011.60 hPa
Luftdruck (Minimum / Tiefstwert) und Zeitpunkt der Messung23:45:00 Uhr1002.00 hPa
Errechneter Absolutwert der Luftdruckschwankungen des Tages9.60 hPa
Höchste gemessene Windgeschwindigkeit und Uhrzeit der Messung19:15:00 Uhr16.92 km/h
Errechnete Windhäufigkeit in Relation zu den Messwerten des Tages60.41667 %
Niedrigste Windkühle (Windchill) und Zeitpunkt der Messung07:15:00 Uhr-2.20 °C
Taupunkt (Maximum / Höchstwert) und Uhrzeit der Messung10:15:00 Uhr1.00 °C
Taupunkt (Minimum / Tiefstwert) und Uhrzeit der Messung06:00:00-3.90 °C
Anzahl der automatisch eingelesenen Messwerte 96

Detaillierte Wetter- und Klima- Messwerte für den 03.03.2017 in Holzhau im Erzgebirge (630m ü.NN)
ZeitTemperaturLuftdruckRel. LuftfeuchteWindWindrichtungWindchillTaupunktNiederschlag l/m²
23:45:003.60 °C1002.00 hPa66.00 %-2.10 °C 
23:30:003.90 °C1002.20 hPa65.00 %-2.10 °C 
23:15:004.10 °C1002.40 hPa64.00 %-2.10 °C 
23:00:004.10 °C1002.60 hPa64.00 %5.76 km/hOSO2.80 °C-2.10 °C 
22:45:004.10 °C1002.70 hPa64.00 %1.08 km/hOSO4.10 °C-2.10 °C 
22:30:004.30 °C1002.90 hPa64.00 %-1.90 °C 
22:15:004.10 °C1002.90 hPa64.00 %-2.10 °C 
22:00:004.30 °C1003.10 hPa63.00 %-2.10 °C 
21:45:004.50 °C1002.80 hPa62.00 %9.00 km/hOSO2.30 °C-2.10 °C 
21:30:004.80 °C1002.90 hPa61.00 %6.84 km/hSO3.20 °C-2.10 °C 
21:15:004.80 °C1002.80 hPa61.00 %13.32 km/hOSO1.80 °C-2.10 °C 
21:00:004.50 °C1003.20 hPa60.00 %10.44 km/hOSO2.00 °C-2.60 °C 
20:45:004.90 °C1003.20 hPa58.00 %2.88 km/hONO4.90 °C-2.70 °C 
20:30:005.20 °C1003.30 hPa57.00 %-2.60 °C 
20:15:005.30 °C1003.50 hPa57.00 %1.44 km/hSSO5.30 °C-2.50 °C 
20:00:005.00 °C1003.20 hPa58.00 %4.32 km/hSO5.00 °C-2.60 °C 
19:45:005.10 °C1003.20 hPa57.00 %2.16 km/hSO5.10 °C-2.70 °C 
19:30:005.00 °C1003.30 hPa58.00 %12.24 km/hSSO2.20 °C-2.60 °C 
19:15:005.10 °C1003.50 hPa58.00 %16.92 km/hSSO1.60 °C-2.50 °C 
19:00:004.90 °C1003.60 hPa58.00 %2.16 km/hSO4.90 °C-2.70 °C 
18:45:004.80 °C1003.60 hPa59.00 %6.12 km/hNO3.50 °C-2.50 °C 
18:30:004.60 °C1003.80 hPa59.00 %9.00 km/hSO2.40 °C-2.70 °C 
18:15:004.60 °C1004.10 hPa60.00 %8.28 km/hO2.60 °C-2.50 °C 
18:00:004.60 °C1004.10 hPa59.00 %-2.70 °C 
17:45:004.80 °C1004.40 hPa58.00 %3.24 km/hSSO4.80 °C-2.70 °C 
17:30:005.20 °C1004.80 hPa57.00 %9.00 km/hSO3.10 °C-2.60 °C 
17:15:005.80 °C1005.20 hPa57.00 %-2.00 °C 
17:00:006.10 °C1005.30 hPa55.00 %7.92 km/hOSO4.40 °C-2.20 °C 
16:45:006.40 °C1005.70 hPa53.00 %7.92 km/hNNO4.80 °C-2.50 °C 
16:30:006.80 °C1005.90 hPa53.00 %3.96 km/hNO6.80 °C-2.10 °C 
16:15:006.90 °C1006.10 hPa54.00 %12.96 km/hS4.40 °C-1.70 °C 
16:00:007.00 °C1006.20 hPa54.00 %-1.70 °C 
15:45:007.10 °C1006.40 hPa54.00 %2.52 km/hSSO7.10 °C-1.60 °C 
15:30:007.10 °C1006.70 hPa54.00 %5.40 km/hNNW6.30 °C-1.60 °C 
15:15:007.20 °C1007.00 hPa54.00 %3.24 km/hS7.20 °C-1.50 °C 
15:00:007.40 °C1007.20 hPa54.00 %7.56 km/hSSO6.10 °C-1.30 °C 
14:45:007.40 °C1007.80 hPa53.00 %-1.50 °C 
14:30:007.60 °C1007.90 hPa54.00 %9.36 km/hSO5.90 °C-1.10 °C 
14:15:007.70 °C1008.20 hPa54.00 %3.96 km/hSW7.70 °C-1.00 °C 
14:00:007.60 °C1008.10 hPa57.00 %4.68 km/hSSW7.60 °C-0.40 °C 
13:45:007.50 °C1008.60 hPa58.00 %9.00 km/hO5.80 °C-0.20 °C 
13:30:007.50 °C1008.80 hPa58.00 %7.56 km/hSO6.20 °C-0.20 °C 
13:15:007.60 °C1009.30 hPa59.00 %6.48 km/hSSO6.60 °C0.10 °C 
13:00:007.30 °C1009.40 hPa61.00 %4.32 km/hS7.30 °C0.30 °C 
12:45:007.20 °C1009.60 hPa60.00 %5.76 km/hS6.30 °C0.00 °C 
12:30:007.10 °C1010.00 hPa59.00 %4.32 km/hSSO7.10 °C-0.40 °C 
12:15:007.00 °C1009.80 hPa59.00 %9.72 km/hSO5.10 °C-0.40 °C 
12:00:007.10 °C1009.90 hPa60.00 %12.24 km/hS4.80 °C-0.10 °C 
11:45:006.90 °C1010.00 hPa63.00 %4.68 km/hS6.90 °C0.40 °C 
11:30:006.80 °C1010.20 hPa64.00 %8.28 km/hSSW5.20 °C0.50 °C 
11:15:006.90 °C1010.30 hPa64.00 %13.32 km/hSSW4.30 °C0.60 °C 
11:00:006.70 °C1009.90 hPa65.00 %5.76 km/hSSO5.80 °C0.60 °C 
10:45:006.70 °C1010.10 hPa65.00 %1.80 km/hS6.70 °C0.60 °C 
10:30:006.40 °C1010.40 hPa67.00 %5.76 km/hSSW5.40 °C0.70 °C 
10:15:005.80 °C1010.50 hPa71.00 %4.32 km/hSO5.80 °C1.00 °C 
10:00:004.90 °C1010.30 hPa75.00 %4.32 km/hO4.90 °C0.90 °C 
09:45:003.80 °C1010.60 hPa81.00 %0.80 °C 
09:30:003.00 °C1010.70 hPa84.00 %0.60 °C 
09:15:002.30 °C1011.00 hPa87.00 %2.52 km/hNO2.30 °C0.40 °C 
09:00:001.60 °C1010.90 hPa90.00 %0.10 °C 
08:45:000.90 °C1011.10 hPa91.00 %-0.40 °C 
08:30:000.20 °C1011.20 hPa91.00 %-1.10 °C 
08:15:00-0.50 °C1011.40 hPa92.00 %-1.80 °C 
08:00:00-1.10 °C1011.50 hPa91.00 %-2.50 °C 
07:45:00-1.60 °C1011.40 hPa91.00 %-3.00 °C 
07:30:00-2.10 °C1011.40 hPa91.00 %-3.50 °C 
07:15:00-2.20 °C1011.20 hPa91.00 %-3.60 °C 
07:00:00-2.20 °C1011.20 hPa90.00 %-3.80 °C 
06:45:00-2.20 °C1011.40 hPa90.00 %-3.80 °C 
06:30:00-2.10 °C1011.20 hPa90.00 %-3.70 °C 
06:15:00-2.10 °C1011.20 hPa90.00 %-3.70 °C 
06:00:00-2.10 °C1011.20 hPa89.00 %-3.90 °C 
05:45:00-1.90 °C1011.50 hPa89.00 %-3.70 °C 
05:30:00-1.70 °C1011.40 hPa88.00 %-3.60 °C 
05:15:00-1.50 °C1011.40 hPa87.00 %-3.60 °C 
05:00:00-1.10 °C1011.20 hPa86.00 %-3.40 °C 
04:45:00-0.60 °C1011.10 hPa86.00 %-2.90 °C 
04:30:000.10 °C1011.20 hPa85.00 %-2.10 °C 
04:15:000.50 °C1011.40 hPa86.00 %-1.60 °C 
04:00:000.80 °C1011.30 hPa86.00 %-1.30 °C 
03:45:000.90 °C1011.60 hPa86.00 %2.52 km/hWNW0.90 °C-1.20 °C 
03:30:001.30 °C1011.40 hPa85.00 %-0.90 °C 
03:15:001.60 °C1011.40 hPa85.00 %7.20 km/hWNW-0.60 °C-0.60 °C 
03:00:001.60 °C1011.20 hPa84.00 %3.24 km/hWNW1.60 °C-0.80 °C 
02:45:001.70 °C1011.30 hPa84.00 %-0.70 °C 
02:30:001.90 °C1011.20 hPa83.00 %1.80 km/hW1.90 °C-0.70 °C 
02:15:002.20 °C1011.30 hPa81.00 %4.68 km/hWNW2.20 °C-0.70 °C 
02:00:002.30 °C1011.00 hPa82.00 %3.24 km/hWNW2.30 °C-0.40 °C 
01:45:002.20 °C1011.20 hPa82.00 %-0.50 °C 
01:30:002.10 °C1011.10 hPa82.00 %-0.60 °C 
01:15:002.10 °C1011.20 hPa83.00 %1.80 km/hW2.10 °C-0.50 °C 
01:00:002.10 °C1011.00 hPa82.00 %1.44 km/hW2.10 °C-0.60 °C 
00:45:002.10 °C1010.80 hPa82.00 %2.16 km/hNNW2.10 °C-0.60 °C 
00:30:002.10 °C1010.70 hPa83.00 %6.84 km/hWNW0.10 °C-0.50 °C 
00:15:002.10 °C1010.60 hPa83.00 %2.52 km/hWSW2.10 °C-0.50 °C 
00:00:002.10 °C1010.50 hPa83.00 %2.88 km/hW2.10 °C-0.50 °C 

Permanenter Link zu dieser Seite: Wetter im Erzgebirge am 03.03.2017
Performance-Info: Die Erstellung der Seite / Statistik(en) / Tabelle(n) erforderte 5 Datenbankserver-Abfrage(n) und dauerte 117 Millisekunden. (Dieser Messwert ist von der Gesamt-Auslastung des Servers abhängig.)
Erzgebirge - Wetter | Erzgebirge - Wetter (Mobilgeräte) | Komplette Klimadatenbank